createdAt,value
2019-01-15T00:02:33.233Z,85.90
2019-01-15T00:05:38.334Z,85.80
2019-01-15T00:08:43.294Z,85.90
2019-01-15T00:11:48.502Z,86.10
2019-01-15T00:14:53.764Z,86.30
2019-01-15T00:17:58.880Z,86.40
2019-01-15T00:21:04.099Z,86.40
2019-01-15T00:24:09.123Z,86.30
2019-01-15T00:27:14.235Z,86.40
2019-01-15T00:30:19.340Z,86.50
2019-01-15T00:33:24.423Z,86.50
2019-01-15T00:36:29.451Z,86.50
2019-01-15T00:39:34.450Z,86.00
2019-01-15T00:42:39.467Z,85.60
2019-01-15T00:45:44.510Z,85.70
2019-01-15T00:48:49.461Z,86.00
2019-01-15T00:51:54.499Z,86.40
2019-01-15T00:54:59.534Z,86.50
2019-01-15T00:58:04.630Z,86.90
2019-01-15T01:01:09.771Z,87.00
2019-01-15T01:04:14.875Z,87.10
2019-01-15T01:07:19.971Z,87.30
2019-01-15T01:10:25.131Z,87.40
2019-01-15T01:13:30.079Z,87.50
2019-01-15T01:16:35.187Z,87.70
2019-01-15T01:19:40.268Z,87.50
2019-01-15T01:22:45.380Z,87.60
2019-01-15T01:25:50.402Z,87.30
2019-01-15T01:28:55.357Z,87.40
2019-01-15T01:32:00.390Z,87.40
2019-01-15T01:35:05.730Z,87.50
2019-01-15T01:38:10.847Z,87.50
2019-01-15T01:41:17.033Z,87.10
2019-01-15T01:44:21.984Z,87.20
2019-01-15T01:47:27.071Z,86.70
2019-01-15T01:50:32.167Z,86.20
2019-01-15T01:53:37.195Z,85.80
2019-01-15T01:56:42.295Z,85.20
2019-01-15T01:59:47.410Z,85.20
2019-01-15T02:02:52.529Z,85.00
2019-01-15T02:05:57.643Z,84.90
2019-01-15T02:09:02.764Z,85.30
2019-01-15T02:12:07.958Z,85.50
2019-01-15T02:15:14.546Z,85.70
2019-01-15T02:18:19.664Z,85.80
2019-01-15T02:21:24.795Z,86.00
2019-01-15T02:24:30.204Z,86.10
2019-01-15T02:27:37.774Z,86.10
2019-01-15T02:30:42.893Z,86.00
2019-01-15T02:33:47.998Z,86.00
2019-01-15T02:36:53.116Z,86.20
2019-01-15T02:39:58.214Z,86.10
2019-01-15T02:43:03.292Z,86.20
2019-01-15T02:46:08.383Z,86.20
2019-01-15T02:49:13.505Z,86.40
2019-01-15T02:52:18.609Z,86.70
2019-01-15T02:55:23.666Z,86.80
2019-01-15T02:58:28.793Z,86.90
2019-01-15T03:01:33.963Z,87.10
2019-01-15T03:04:39.108Z,87.30
2019-01-15T03:07:44.225Z,87.50
2019-01-15T03:10:49.388Z,87.80
2019-01-15T03:13:54.445Z,87.90
2019-01-15T03:16:59.535Z,88.60
2019-01-15T03:20:06.147Z,87.90
2019-01-15T03:23:11.221Z,88.10
2019-01-15T03:26:16.259Z,88.20
2019-01-15T03:29:21.444Z,88.50
2019-01-15T03:32:27.737Z,88.70
2019-01-15T03:35:32.839Z,88.80
2019-01-15T03:38:37.964Z,88.60
2019-01-15T03:41:43.068Z,88.70
2019-01-15T03:44:48.191Z,88.70
2019-01-15T03:47:53.307Z,88.80
2019-01-15T03:50:58.333Z,89.00
2019-01-15T03:54:03.466Z,89.00
2019-01-15T03:57:08.583Z,89.30
2019-01-15T04:00:16.520Z,89.40
2019-01-15T04:03:23.456Z,89.70
2019-01-15T04:06:29.215Z,89.80
2019-01-15T04:09:34.658Z,90.00
2019-01-15T04:12:39.735Z,90.10
2019-01-15T04:15:44.764Z,90.10
2019-01-15T04:18:50.484Z,90.10
2019-01-15T04:21:55.712Z,90.10
2019-01-15T04:25:00.772Z,90.10
2019-01-15T04:28:06.009Z,90.20
2019-01-15T04:31:11.122Z,90.10
2019-01-15T04:34:16.164Z,90.10
2019-01-15T04:37:21.250Z,90.50
2019-01-15T04:40:26.299Z,90.10
2019-01-15T04:43:31.343Z,90.10
2019-01-15T04:46:36.451Z,90.20
2019-01-15T04:49:41.431Z,90.10
2019-01-15T04:52:50.972Z,90.20
2019-01-15T04:55:56.013Z,90.20
2019-01-15T04:59:01.149Z,90.20
2019-01-15T05:02:06.444Z,90.20
2019-01-15T05:05:11.675Z,90.20
2019-01-15T05:08:16.696Z,90.20
2019-01-15T05:11:23.387Z,90.30
2019-01-15T05:14:28.498Z,90.30
2019-01-15T05:17:33.599Z,90.70
2019-01-15T05:20:38.734Z,90.50
2019-01-15T05:23:43.909Z,90.60
2019-01-15T05:26:49.024Z,90.60
2019-01-15T05:29:54.135Z,90.70
2019-01-15T05:32:59.302Z,90.80
2019-01-15T05:36:04.457Z,90.80
2019-01-15T05:39:10.102Z,90.80
2019-01-15T05:42:15.485Z,90.90
2019-01-15T05:45:36.603Z,90.90
2019-01-15T05:48:41.797Z,91.00
2019-01-15T05:51:47.295Z,91.00
2019-01-15T05:54:52.407Z,90.90
2019-01-15T05:57:57.363Z,91.00
2019-01-15T06:01:02.543Z,90.90
2019-01-15T06:04:07.915Z,90.80
2019-01-15T06:07:13.095Z,90.70
2019-01-15T06:10:18.222Z,90.60
2019-01-15T06:13:23.249Z,90.60
2019-01-15T06:16:28.220Z,90.60
2019-01-15T06:19:33.361Z,90.60
2019-01-15T06:22:38.475Z,90.60
2019-01-15T06:25:43.590Z,90.60
2019-01-15T06:28:48.863Z,90.70
2019-01-15T06:31:53.976Z,90.80
2019-01-15T06:34:59.043Z,90.80
2019-01-15T06:38:04.293Z,90.90
2019-01-15T06:41:09.647Z,90.90
2019-01-15T06:44:14.721Z,90.80
2019-01-15T06:47:19.848Z,90.80
2019-01-15T06:50:25.063Z,90.90
2019-01-15T06:53:30.092Z,90.80
2019-01-15T06:56:35.128Z,90.80
2019-01-15T06:59:40.268Z,91.20
2019-01-15T07:02:45.485Z,90.80
2019-01-15T07:05:50.626Z,90.90
2019-01-15T07:08:55.724Z,90.90
2019-01-15T07:12:00.852Z,90.90
2019-01-15T07:15:06.523Z,90.70
2019-01-15T07:18:11.647Z,90.70
2019-01-15T07:21:16.686Z,90.70
2019-01-15T07:24:21.860Z,90.60
2019-01-15T07:27:26.999Z,90.60
2019-01-15T07:30:39.352Z,90.60
2019-01-15T07:33:44.467Z,90.30
2019-01-15T07:36:49.496Z,90.20
2019-01-15T07:39:54.641Z,90.20
2019-01-15T07:42:59.719Z,90.00
2019-01-15T07:46:05.047Z,90.10
2019-01-15T07:49:10.140Z,89.20
2019-01-15T07:52:15.251Z,88.80
2019-01-15T07:55:20.365Z,88.60
2019-01-15T07:58:25.414Z,88.20
2019-01-15T08:01:30.595Z,88.10
2019-01-15T08:04:35.707Z,87.80
2019-01-15T08:07:40.839Z,87.90
2019-01-15T08:10:45.878Z,87.70
2019-01-15T08:13:51.172Z,87.30
2019-01-15T08:16:56.273Z,87.30
2019-01-15T08:20:01.396Z,87.00
2019-01-15T08:23:06.548Z,87.20
2019-01-15T08:26:11.657Z,87.30
2019-01-15T08:29:16.780Z,87.20
2019-01-15T08:32:21.907Z,87.00
2019-01-15T08:35:27.016Z,86.60
2019-01-15T08:38:32.131Z,86.60
2019-01-15T08:41:37.275Z,86.50
2019-01-15T08:44:42.665Z,86.60
2019-01-15T08:47:50.895Z,86.60
2019-01-15T08:50:56.271Z,86.70
2019-01-15T08:54:01.672Z,87.20
2019-01-15T08:57:06.792Z,87.70
2019-01-15T09:00:12.695Z,87.80
2019-01-15T09:03:17.813Z,87.50
2019-01-15T09:06:22.869Z,87.50
2019-01-15T09:09:27.892Z,87.60
2019-01-15T09:12:33.075Z,87.70
2019-01-15T09:15:38.288Z,87.50
2019-01-15T09:18:43.444Z,87.70
2019-01-15T09:21:48.756Z,87.90
2019-01-15T09:24:53.999Z,87.90
2019-01-15T09:27:59.116Z,87.90
2019-01-15T09:31:04.296Z,88.10
2019-01-15T09:34:09.414Z,88.00
2019-01-15T09:37:15.092Z,88.00
2019-01-15T09:40:21.992Z,88.30
2019-01-15T09:43:27.089Z,88.50
2019-01-15T09:46:32.211Z,88.50
2019-01-15T09:49:37.328Z,88.90
2019-01-15T09:52:42.621Z,89.90
2019-01-15T09:55:47.708Z,89.40
2019-01-15T09:58:52.745Z,89.50
2019-01-15T10:01:57.859Z,89.40
2019-01-15T10:05:02.969Z,89.30
2019-01-15T10:08:08.059Z,89.30
2019-01-15T10:11:13.183Z,89.10
2019-01-15T10:14:18.372Z,89.10
2019-01-15T10:17:23.479Z,88.60
2019-01-15T10:20:28.870Z,88.30
2019-01-15T10:23:33.973Z,88.40
2019-01-15T10:26:41.971Z,88.60
2019-01-15T10:29:48.474Z,88.70
2019-01-15T10:33:08.568Z,88.70
2019-01-15T10:36:12.247Z,88.60
2019-01-15T10:39:17.294Z,88.70
2019-01-15T10:42:22.396Z,88.20
2019-01-15T10:45:27.517Z,88.10
2019-01-15T10:48:32.627Z,88.30
2019-01-15T10:51:37.755Z,87.70
2019-01-15T10:54:42.791Z,87.40
2019-01-15T10:57:47.908Z,87.60
2019-01-15T11:00:52.999Z,87.50
2019-01-15T11:03:59.736Z,87.40
2019-01-15T11:07:04.911Z,87.10
2019-01-15T11:10:12.528Z,86.60
2019-01-15T11:13:17.552Z,86.30
2019-01-15T11:16:22.610Z,86.40
2019-01-15T11:19:27.721Z,86.40
2019-01-15T11:22:32.844Z,85.90
2019-01-15T11:25:37.971Z,85.90
2019-01-15T11:28:43.140Z,85.00
2019-01-15T11:31:48.287Z,84.30
2019-01-15T11:34:53.322Z,84.20
2019-01-15T11:37:58.357Z,83.80
2019-01-15T11:41:03.468Z,83.50
2019-01-15T11:44:08.568Z,82.90
2019-01-15T11:47:13.686Z,83.10
2019-01-15T11:50:18.819Z,82.70
2019-01-15T11:53:23.945Z,82.10
2019-01-15T11:56:28.976Z,82.00
2019-01-15T11:59:34.279Z,82.20
2019-01-15T12:02:56.084Z,82.70
2019-01-15T12:06:16.291Z,82.80
2019-01-15T12:09:40.481Z,82.40
2019-01-15T12:13:04.888Z,82.60
2019-01-15T12:16:22.987Z,82.20
2019-01-15T12:19:37.832Z,81.90
2019-01-15T12:22:55.548Z,81.80
2019-01-15T12:26:22.720Z,81.90
2019-01-15T12:29:52.299Z,82.00
2019-01-15T12:33:28.236Z,81.90
2019-01-15T12:37:07.263Z,82.10
2019-01-15T12:40:46.608Z,81.50
2019-01-15T12:44:10.719Z,81.10
2019-01-15T12:47:40.986Z,81.20
2019-01-15T12:51:03.580Z,81.10
2019-01-15T12:54:36.738Z,81.30
2019-01-15T12:58:00.921Z,81.60
2019-01-15T13:01:20.220Z,82.60
2019-01-15T13:04:47.083Z,81.60
2019-01-15T13:08:20.183Z,81.80
2019-01-15T13:11:42.715Z,81.70
2019-01-15T13:15:26.001Z,82.00
2019-01-15T13:18:43.371Z,82.10
2019-01-15T13:21:56.499Z,82.10
2019-01-15T13:25:21.278Z,82.30
2019-01-15T13:28:43.971Z,82.50
2019-01-15T13:32:01.507Z,82.80
2019-01-15T13:35:23.964Z,83.00
2019-01-15T13:38:52.756Z,83.20
2019-01-15T13:42:23.139Z,83.60
2019-01-15T13:46:00.823Z,83.90
2019-01-15T13:49:19.717Z,84.30
2019-01-15T13:52:43.571Z,84.40
2019-01-15T13:56:07.736Z,84.80
2019-01-15T13:59:22.843Z,85.10
2019-01-15T14:02:47.011Z,85.10
2019-01-15T14:06:09.576Z,85.00
2019-01-15T14:09:25.804Z,85.10
2019-01-15T14:12:49.922Z,85.50
2019-01-15T14:16:08.800Z,85.80
2019-01-15T14:19:41.673Z,86.70
2019-01-15T14:23:11.680Z,86.00
2019-01-15T14:26:44.901Z,85.80
2019-01-15T14:30:05.983Z,85.60
2019-01-15T14:33:28.538Z,85.60
2019-01-15T14:36:54.326Z,84.90
2019-01-15T14:40:16.885Z,84.70
2019-01-15T14:43:43.938Z,84.50
2019-01-15T14:47:19.812Z,84.00
2019-01-15T14:50:36.006Z,83.80
2019-01-15T14:54:06.292Z,83.50
2019-01-15T14:57:26.010Z,83.10
2019-01-15T15:00:48.256Z,83.00
2019-01-15T15:04:30.360Z,82.50
2019-01-15T15:07:52.979Z,82.20
2019-01-15T15:11:19.792Z,82.20
2019-01-15T15:14:43.968Z,81.70
2019-01-15T15:18:06.492Z,82.20
2019-01-15T15:21:30.687Z,81.20
2019-01-15T15:24:54.941Z,81.00
2019-01-15T15:28:10.431Z,80.90
2019-01-15T15:31:25.581Z,81.00
2019-01-15T15:34:48.456Z,81.10
2019-01-15T15:38:21.699Z,81.50
2019-01-15T15:41:44.331Z,81.60
2019-01-15T15:45:06.859Z,81.60
2019-01-15T15:48:43.286Z,81.80
2019-01-15T15:52:19.456Z,81.90
2019-01-15T15:55:58.520Z,82.20
2019-01-15T15:59:25.462Z,82.50
2019-01-15T16:02:59.694Z,82.70
2019-01-15T16:06:34.188Z,82.70
2019-01-15T16:10:07.445Z,83.00
2019-01-15T16:13:32.223Z,83.10
2019-01-15T16:16:45.268Z,83.40
2019-01-15T16:20:12.419Z,83.50
2019-01-15T16:23:29.520Z,83.50
2019-01-15T16:26:43.749Z,83.70
2019-01-15T16:30:06.613Z,84.80
2019-01-15T16:33:31.219Z,84.20
2019-01-15T16:36:53.784Z,84.40
2019-01-15T16:40:17.888Z,84.70
2019-01-15T16:43:34.813Z,84.90
2019-01-15T16:46:57.397Z,85.20
2019-01-15T16:50:21.600Z,85.40
2019-01-15T16:53:38.390Z,85.50
2019-01-15T16:57:08.415Z,86.50
2019-01-15T17:00:38.512Z,85.90
2019-01-15T17:04:08.760Z,85.90
2019-01-15T17:07:28.267Z,86.10
2019-01-15T17:11:04.274Z,86.10
2019-01-15T17:14:26.913Z,86.00
2019-01-15T17:18:09.228Z,85.90
2019-01-15T17:21:33.755Z,86.00
2019-01-15T17:24:56.296Z,86.20
2019-01-15T17:28:19.155Z,86.40
2019-01-15T17:31:42.060Z,86.40
2019-01-15T17:35:09.276Z,86.40
2019-01-15T17:38:45.544Z,86.30
2019-01-15T17:42:08.131Z,86.60
2019-01-15T17:45:38.011Z,86.70
2019-01-15T17:49:00.580Z,86.70
2019-01-15T17:52:23.233Z,86.90
2019-01-15T17:56:05.244Z,86.90
2019-01-15T17:59:27.548Z,87.20
2019-01-15T18:03:06.623Z,87.10
2019-01-15T18:06:24.892Z,87.20
2019-01-15T18:10:00.940Z,87.30
2019-01-15T18:13:40.060Z,87.50
2019-01-15T18:16:57.411Z,87.70
2019-01-15T18:20:13.508Z,88.00
2019-01-15T18:23:29.927Z,89.00
2019-01-15T18:26:52.547Z,88.30
2019-01-15T18:30:15.501Z,88.50
2019-01-15T18:33:34.608Z,88.50
2019-01-15T18:37:01.583Z,88.50
2019-01-15T18:40:39.168Z,88.70
2019-01-15T18:44:18.155Z,88.90
2019-01-15T18:47:35.123Z,89.20
2019-01-15T18:51:17.435Z,89.20
2019-01-15T18:54:44.028Z,89.40
2019-01-15T18:58:16.273Z,89.60
2019-01-15T19:01:38.920Z,89.80
2019-01-15T19:04:53.883Z,89.90
2019-01-15T19:08:22.051Z,89.80
2019-01-15T19:12:04.908Z,89.60
2019-01-15T19:15:29.043Z,89.90
2019-01-15T19:18:51.751Z,89.90
2019-01-15T19:22:06.916Z,89.90
2019-01-15T19:25:33.856Z,89.80
2019-01-15T19:29:07.772Z,90.00
2019-01-15T19:32:36.521Z,90.00
2019-01-15T19:36:00.635Z,89.80
2019-01-15T19:39:24.312Z,89.80
2019-01-15T19:42:51.196Z,89.90
2019-01-15T19:46:13.675Z,89.90
2019-01-15T19:49:32.621Z,89.90
2019-01-15T19:52:57.210Z,90.00
2019-01-15T19:56:27.295Z,90.40
2019-01-15T19:59:50.368Z,90.10
2019-01-15T20:03:23.512Z,90.10
2019-01-15T20:06:53.774Z,90.20
2019-01-15T20:10:33.414Z,90.20
2019-01-15T20:13:56.088Z,90.30
2019-01-15T20:17:26.903Z,90.40
2019-01-15T20:20:54.963Z,90.50
2019-01-15T20:24:09.726Z,90.60
2019-01-15T20:27:50.448Z,90.60
2019-01-15T20:31:31.914Z,90.70
2019-01-15T20:34:57.195Z,90.80
2019-01-15T20:38:25.112Z,90.90
2019-01-15T20:41:58.354Z,91.00
2019-01-15T20:45:20.942Z,91.20
2019-01-15T20:48:36.141Z,91.20
2019-01-15T20:51:55.257Z,91.40
2019-01-15T20:55:22.479Z,91.50
2019-01-15T20:58:52.692Z,91.60
2019-01-15T21:02:16.942Z,91.70
2019-01-15T21:05:37.436Z,91.70
2019-01-15T21:09:00.262Z,91.70
2019-01-15T21:12:36.632Z,91.80
2019-01-15T21:15:59.209Z,91.80
2019-01-15T21:19:32.176Z,91.90
2019-01-15T21:22:53.917Z,92.00
2019-01-15T21:26:24.262Z,92.10
2019-01-15T21:29:54.153Z,92.20
2019-01-15T21:33:17.454Z,92.50
2019-01-15T21:36:52.163Z,92.10
2019-01-15T21:40:09.028Z,92.20
2019-01-15T21:43:37.105Z,92.00
2019-01-15T21:47:01.593Z,92.00
2019-01-15T21:50:20.695Z,91.80
2019-01-15T21:53:36.491Z,91.80
2019-01-15T21:56:59.425Z,92.10
2019-01-15T22:00:38.094Z,92.00
2019-01-15T22:04:17.360Z,92.10
2019-01-15T22:07:45.403Z,91.80
2019-01-15T22:11:05.789Z,91.80
2019-01-15T22:14:41.728Z,91.80
2019-01-15T22:17:54.692Z,91.80
2019-01-15T22:21:11.391Z,91.70
2019-01-15T22:24:44.514Z,91.60
2019-01-15T22:28:07.329Z,91.60
2019-01-15T22:31:21.527Z,91.50
2019-01-15T22:35:02.017Z,91.50
2019-01-15T22:38:26.466Z,91.50
2019-01-15T22:41:53.732Z,91.40
2019-01-15T22:45:13.838Z,91.40
2019-01-15T22:48:55.947Z,91.40
2019-01-15T22:52:35.866Z,91.40
2019-01-15T22:55:48.883Z,91.40
2019-01-15T22:59:13.767Z,91.50
2019-01-15T23:02:36.879Z,91.50
2019-01-15T23:06:09.324Z,91.40
2019-01-15T23:09:39.287Z,91.30
2019-01-15T23:13:03.662Z,91.50
2019-01-15T23:16:18.084Z,91.60
2019-01-15T23:19:41.007Z,91.60
2019-01-15T23:23:05.204Z,91.60
2019-01-15T23:26:33.789Z,92.00
2019-01-15T23:29:47.499Z,91.70
2019-01-15T23:33:10.284Z,91.80
2019-01-15T23:36:31.603Z,91.90
2019-01-15T23:39:54.101Z,92.00
2019-01-15T23:43:18.300Z,92.00
2019-01-15T23:46:45.224Z,92.20
2019-01-15T23:50:09.386Z,91.90
2019-01-15T23:53:33.568Z,91.90
2019-01-15T23:57:00.722Z,91.90
